Terminal Aerodrome Forecast
Issued by NWS

Home | Current Version | Previous Version | Text Only | Print | Product List | Glossary On
Versions: 1 2 3 4 5 6 7 8 9 10 11 12 13 14 15 16 17 18 19 20 21 22 23 24 25 26 27 28 29 30 31 32 33 34 35 36 37 38
096
FTUS41 KBOX 300539 AAA
TAFBAF
TAF AMD
KBAF 300539Z 3006/0106 01007KT P6SM SCT040 BKN200
     FM300900 04009KT P6SM OVC035
     FM301100 03010KT P6SM VCSH OVC020
     FM301500 04009KT P6SM VCSH OVC110
     FM301800 05009KT 4SM -SHRA OVC050
     FM010000 04009KT 4SM -SHRA BR OVC015
     FM010500 03009KT 2SM -SHRA BR OVC015=

USA.gov is the U.S. government's official web portal to all federal, state and local government web resources and services.